Time;durP1;ratioP1;P1;durP2;ratioP2;P2;SDS_P1;SDS_P2;PMS_P1;PMS_P2;Temp;Humidity;BMP_temperature;BMP_pressure;BME280_temperature;BME280_humidity;BME280_pressure;Samples;Min_cycle;Max_cycle;Signal;HPM_P1;HPM_P2
2021/03/31 00:00:12;;;;;;;18.33;11.10;;;;;;;9.98;63.10;100495.41;5044838;28;20230;-80
2021/03/31 00:03:13;;;;;;;14.00;8.83;;;;;;;9.86;62.42;100472.84;5045019;28;20230;-80
2021/03/31 00:06:35;;;;;;;23.00;14.67;;;;;;;9.93;63.25;100495.16;4954029;29;20541;-80
2021/03/31 00:10:07;;;;;;;37.90;22.37;;;;;;;9.83;63.57;100492.00;4950479;29;20204;-80
2021/03/31 00:13:07;;;;;;;19.47;11.43;;;;;;;9.87;62.74;100482.56;4968259;29;20240;-80
2021/03/31 00:17:15;;;;;;;18.80;10.90;;;;;;;9.76;63.24;100478.53;4953487;29;20239;-79
2021/03/31 00:20:33;;;;;;;12.83;7.00;;;;;;;9.82;62.53;100483.13;4964457;29;20249;-80
2021/03/31 00:24:04;;;;;;;10.50;6.40;;;;;;;9.82;62.36;100476.94;4967288;29;20631;-79
2021/03/31 00:27:38;;;;;;;8.40;4.93;;;;;;;9.82;61.64;100466.25;4959091;29;20229;-79
2021/03/31 00:31:19;;;;;;;7.50;4.00;;;;;;;9.81;61.17;100460.06;4949347;29;20221;-79
2021/03/31 00:34:59;;;;;;;9.90;4.40;;;;;;;9.94;61.29;100468.19;4938920;29;20294;-79
2021/03/31 00:38:29;;;;;;;8.13;4.30;;;;;;;9.94;61.38;100462.00;4937902;29;20202;-80
2021/03/31 00:42:54;;;;;;;7.20;4.23;;;;;;;9.96;61.33;100466.16;4947902;29;20237;-79
2021/03/31 00:46:45;;;;;;;7.70;4.10;;;;;;;9.98;60.63;100466.81;4963912;29;20220;-80
2021/03/31 00:50:14;;;;;;;6.77;3.77;;;;;;;9.96;60.19;100451.94;5064947;23;20240;-80
2021/03/31 00:54:12;;;;;;;6.47;3.80;;;;;;;10.09;60.01;100463.56;5029730;28;20309;-80
2021/03/31 00:57:54;;;;;;;7.83;3.73;;;;;;;10.12;59.89;100460.47;4985167;23;20222;-80
2021/03/31 01:01:39;;;;;;;5.57;3.63;;;;;;;10.12;59.66;100451.66;5041644;28;20222;-80
2021/03/31 01:05:32;;;;;;;5.33;3.50;;;;;;;10.08;59.93;100437.81;5030115;28;20282;-80
2021/03/31 01:08:43;;;;;;;6.90;3.63;;;;;;;10.06;60.22;100439.03;5027829;28;20195;-79
2021/03/31 01:12:45;;;;;;;7.67;3.77;;;;;;;10.10;60.24;100448.31;5030291;28;20226;-79
2021/03/31 01:16:55;;;;;;;7.50;3.77;;;;;;;9.94;61.85;100449.44;5053661;23;20222;-79
2021/03/31 01:20:47;;;;;;;5.77;3.83;;;;;;;9.80;61.60;100455.72;5047769;28;20218;-80
2021/03/31 01:24:56;;;;;;;6.63;3.70;;;;;;;9.70;61.98;100447.22;4999476;28;20289;-80
2021/03/31 01:28:31;;;;;;;7.67;3.70;;;;;;;9.36;61.84;100397.16;5034997;28;20566;-79
2021/03/31 01:32:24;;;;;;;5.80;3.63;;;;;;;9.66;61.49;100449.44;5068510;23;20248;-78
2021/03/31 01:36:16;;;;;;;5.30;3.53;;;;;;;9.65;61.87;100450.50;5118525;23;20256;-79
2021/03/31 01:39:27;;;;;;;6.73;3.53;;;;;;;9.63;62.00;100449.84;5155093;23;20238;-80
2021/03/31 01:42:45;;;;;;;5.27;3.30;;;;;;;9.58;62.37;100446.09;5072235;23;20230;-80
2021/03/31 01:46:05;;;;;;;6.27;3.70;;;;;;;9.44;62.19;100447.00;5126585;23;20260;-80
2021/03/31 01:49:32;;;;;;;5.20;3.10;;;;;;;9.44;62.65;100450.50;5049906;28;20249;-79
2021/03/31 01:52:56;;;;;;;6.70;3.53;;;;;;;9.27;62.46;100430.41;5052399;28;20225;-79
2021/03/31 01:56:17;;;;;;;5.43;3.60;;;;;;;9.35;62.61;100442.78;5051458;28;20233;-80
2021/03/31 01:59:55;;;;;;;4.80;3.33;;;;;;;9.29;62.89;100442.53;5040955;28;20229;-80
2021/03/31 02:03:07;;;;;;;7.47;3.30;;;;;;;9.25;62.81;100435.09;5046348;28;20205;-80
2021/03/31 02:06:13;;;;;;;5.70;3.33;;;;;;;9.08;63.39;100437.22;5032008;28;20219;-79
2021/03/31 02:09:57;;;;;;;3.63;3.10;;;;;;;8.82;63.96;100399.50;5023146;23;20220;-80
2021/03/31 02:14:16;;;;;;;5.67;3.40;;;;;;;9.06;63.68;100444.56;5044054;23;20238;-80
2021/03/31 02:18:11;;;;;;;6.47;3.40;;;;;;;9.05;63.58;100439.44;5030755;28;20266;-79
2021/03/31 02:22:01;;;;;;;8.60;3.63;;;;;;;8.97;63.83;100431.53;5011550;28;20191;-79
2021/03/31 02:25:15;;;;;;;4.37;3.00;;;;;;;8.99;63.89;100438.34;5005764;28;20227;-79
2021/03/31 02:28:39;;;;;;;6.00;3.40;;;;;;;8.82;64.04;100419.03;5009870;28;20234;-80
2021/03/31 02:35:36;;;;;;;8.17;3.20;;;;;;;8.75;65.37;100442.19;5157564;23;20296;-79
2021/03/31 02:39:31;;;;;;;6.33;3.53;;;;;;;8.50;66.15;100440.00;5052924;28;20206;-79
2021/03/31 02:43:16;;;;;;;6.10;3.40;;;;;;;8.43;66.28;100452.47;5060197;23;20272;-79
2021/03/31 02:46:52;;;;;;;6.30;3.60;;;;;;;8.28;66.12;100447.94;5023325;28;20221;-80
2021/03/31 02:50:35;;;;;;;6.57;3.53;;;;;;;8.20;67.52;100444.53;5019079;28;20229;-79
2021/03/31 02:54:29;;;;;;;5.40;3.17;;;;;;;8.04;68.48;100440.19;5048450;28;20229;-79
2021/03/31 02:57:35;;;;;;;4.90;3.20;;;;;;;8.04;68.00;100447.38;5053466;28;20255;-79
2021/03/31 03:01:25;;;;;;;5.30;3.40;;;;;;;7.94;68.51;100443.13;5053670;28;20267;-79
2021/03/31 03:05:18;;;;;;;6.87;3.47;;;;;;;7.81;68.67;100434.94;5054589;28;20221;-79
2021/03/31 03:09:05;;;;;;;8.43;3.10;;;;;;;7.71;68.91;100430.88;5053839;28;20229;-79
2021/03/31 03:13:15;;;;;;;6.17;3.00;;;;;;;7.65;69.23;100444.94;5090514;23;20244;-80
2021/03/31 03:17:15;;;;;;;4.17;2.93;;;;;;;7.58;69.38;100441.34;5031009;28;20240;-80
2021/03/31 03:20:46;;;;;;;5.23;3.43;;;;;;;7.58;69.25;100438.66;5027475;28;20246;-79
2021/03/31 03:24:41;;;;;;;3.73;3.10;;;;;;;7.46;69.96;100416.94;5031282;28;20279;-79
2021/03/31 03:28:09;;;;;;;4.60;3.23;;;;;;;7.48;70.45;100428.25;5029103;28;20230;-80
2021/03/31 03:31:24;;;;;;;4.77;3.40;;;;;;;7.49;70.68;100433.41;5055133;28;20247;-80
2021/03/31 03:34:45;;;;;;;5.03;3.00;;;;;;;7.27;70.34;100394.28;5070014;28;20226;-79
2021/03/31 03:38:27;;;;;;;5.67;3.00;;;;;;;7.43;71.13;100428.78;5021802;28;20705;-79
2021/03/31 03:41:47;;;;;;;5.10;3.10;;;;;;;7.32;71.15;100423.06;5078102;23;20232;-80
2021/03/31 03:45:12;;;;;;;5.90;3.40;;;;;;;7.28;71.30;100417.25;5076060;28;20225;-79
2021/03/31 03:49:28;;;;;;;3.90;3.10;;;;;;;7.24;71.15;100421.28;5057366;28;20220;-79
2021/03/31 03:53:21;;;;;;;4.63;3.30;;;;;;;7.33;71.24;100427.38;5074253;23;20222;-79
2021/03/31 03:56:47;;;;;;;4.83;3.20;;;;;;;7.34;70.79;100418.38;5047770;28;20257;-79
2021/03/31 04:00:16;;;;;;;4.80;3.43;;;;;;;7.26;70.90;100405.97;5032147;28;20245;-79
2021/03/31 04:03:54;;;;;;;6.37;3.43;;;;;;;7.29;70.54;100423.41;5051005;23;20238;-79
2021/03/31 04:07:24;;;;;;;3.90;3.17;;;;;;;7.23;71.10;100426.81;5000045;28;20218;-79
2021/03/31 04:10:37;;;;;;;7.00;3.90;;;;;;;7.13;72.04;100423.56;5048522;28;20242;-79
2021/03/31 04:14:04;;;;;;;7.67;3.60;;;;;;;6.97;72.38;100435.97;5008059;28;20231;-79
2021/03/31 04:17:44;;;;;;;7.47;3.67;;;;;;;6.88;72.51;100429.03;5023018;23;20225;-79
2021/03/31 04:20:52;;;;;;;6.50;3.80;;;;;;;6.90;72.75;100439.53;5033695;28;20224;-79
2021/03/31 04:24:14;;;;;;;6.77;3.70;;;;;;;6.88;72.25;100433.53;5053217;28;20233;-79
2021/03/31 04:27:55;;;;;;;6.30;3.57;;;;;;;6.83;72.93;100439.41;5170655;23;20264;-80
2021/03/31 04:31:09;;;;;;;4.57;3.20;;;;;;;6.80;72.97;100439.75;5031603;28;20190;-79
2021/03/31 04:34:30;;;;;;;5.50;3.43;;;;;;;6.68;73.27;100430.50;5038050;28;20228;-79
2021/03/31 04:37:40;;;;;;;7.17;4.00;;;;;;;6.54;73.13;100417.91;5042755;28;20237;-79
2021/03/31 04:41:12;;;;;;;9.13;3.77;;;;;;;6.77;73.09;100448.09;5037278;28;20213;-79
2021/03/31 04:44:16;;;;;;;11.23;5.97;;;;;;;6.48;72.97;100406.16;5028828;28;20965;-80
2021/03/31 04:47:24;;;;;;;15.90;8.73;;;;;;;6.71;73.26;100440.81;5032970;28;20443;-79
2021/03/31 04:51:20;;;;;;;10.33;6.47;;;;;;;6.87;73.10;100454.03;5049131;28;20268;-79
2021/03/31 04:55:06;;;;;;;9.37;3.67;;;;;;;6.85;73.79;100460.53;5047108;23;20236;-79
2021/03/31 04:58:18;;;;;;;8.23;3.67;;;;;;;6.88;72.71;100457.50;5030808;23;20322;-80
2021/03/31 05:01:48;;;;;;;8.30;3.90;;;;;;;6.93;72.33;100455.16;5041974;23;20217;-80
2021/03/31 05:05:07;;;;;;;6.33;3.90;;;;;;;7.02;72.54;100457.59;5060037;28;20225;-79
2021/03/31 05:08:19;;;;;;;6.70;3.73;;;;;;;7.06;72.86;100460.72;5050255;28;20216;-79
2021/03/31 05:11:02;;;;;;;7.13;4.10;;;;;;;7.07;72.37;100447.25;5069418;28;20225;-79
2021/03/31 05:14:09;;;;;;;4.27;3.20;;;;;;;7.25;72.02;100464.75;5030231;28;20223;-79
2021/03/31 05:18:13;;;;;;;7.10;3.77;;;;;;;7.39;71.86;100445.31;5009978;28;20257;-78
2021/03/31 05:21:30;;;;;;;8.73;4.10;;;;;;;7.73;70.02;100458.19;5029643;28;20222;-79
2021/03/31 05:25:06;;;;;;;6.20;3.67;;;;;;;7.83;69.01;100440.94;5035336;23;20225;-79
2021/03/31 05:28:45;;;;;;;6.10;4.00;;;;;;;8.14;67.96;100446.09;5071199;22;20323;-80
2021/03/31 05:31:49;;;;;;;6.70;3.77;;;;;;;8.52;66.94;100462.03;5031232;28;20225;-80
2021/03/31 05:35:01;;;;;;;9.83;3.97;;;;;;;8.79;66.37;100467.53;5113101;23;20242;-80
2021/03/31 05:38:00;;;;;;;8.07;3.90;;;;;;;9.00;65.43;100466.75;5037511;23;20226;-80
2021/03/31 05:41:53;;;;;;;9.07;3.50;;;;;;;9.25;64.75;100472.53;5052678;23;20230;-81
2021/03/31 05:45:45;;;;;;;8.37;3.93;;;;;;;9.58;63.10;100476.34;5051536;23;20236;-80
2021/03/31 05:49:30;;;;;;;8.77;3.50;;;;;;;9.86;61.69;100471.00;5074435;23;20217;-80
2021/03/31 05:53:26;;;;;;;6.90;3.60;;;;;;;10.12;60.39;100465.03;5047300;28;20241;-80
2021/03/31 05:57:01;;;;;;;7.57;3.80;;;;;;;10.42;59.43;100479.03;5034281;28;20246;-80
2021/03/31 06:00:28;;;;;;;5.97;3.47;;;;;;;10.62;58.70;100477.28;5046163;28;20198;-80
2021/03/31 06:03:44;;;;;;;7.17;3.97;;;;;;;10.55;58.28;100423.66;5223821;23;20391;-78
2021/03/31 06:07:01;;;;;;;7.93;4.40;;;;;;;11.02;57.46;100467.53;5061053;23;20221;31
2021/03/31 06:10:35;;;;;;;7.10;3.83;;;;;;;11.27;56.77;100468.63;5064936;23;20237;-78
2021/03/31 06:14:08;;;;;;;24.50;19.57;;;;;;;11.49;56.11;100455.84;5065768;28;20217;-78
2021/03/31 06:17:56;;;;;;;6.27;5.10;;;;;;;11.63;55.69;100444.09;5065547;28;20225;-78
2021/03/31 06:21:04;;;;;;;11.63;3.87;;;;;;;11.88;55.18;100452.38;5050855;28;20229;-78
2021/03/31 06:24:30;;;;;;;9.27;4.00;;;;;;;12.07;54.62;100446.16;5068104;28;20272;-77
2021/03/31 07:48:22;;;;;;;13.47;4.97;;;;;;;16.49;46.18;100408.75;5008610;23;20248;-89
2021/03/31 07:51:26;;;;;;;9.90;5.00;;;;;;;16.59;46.55;100400.06;4944115;29;20234;-90
2021/03/31 07:54:05;;;;;;;12.43;4.70;;;;;;;16.65;45.48;100385.59;4920848;28;20236;-90
2021/03/31 07:56:41;;;;;;;9.27;4.60;;;;;;;16.59;45.34;100379.25;4944920;28;20683;-91
2021/03/31 07:59:16;;;;;;;9.23;5.10;;;;;;;16.79;44.96;100396.94;4954386;28;20342;-91
2021/03/31 08:01:57;;;;;;;11.17;5.17;;;;;;;17.00;44.39;100404.38;4927411;28;20227;-91
2021/03/31 08:04:34;;;;;;;12.17;5.13;;;;;;;17.03;43.75;100393.88;4946474;28;20647;-91
2021/03/31 08:07:31;;;;;;;10.93;5.10;;;;;;;17.17;42.41;100392.50;4930218;28;20241;-92
2021/03/31 08:10:36;;;;;;;14.17;5.17;;;;;;;17.41;42.54;100401.31;4964892;28;20227;-91
2021/03/31 08:13:30;;;;;;;11.07;5.27;;;;;;;17.66;41.71;100392.81;4945631;28;20273;-92
2021/03/31 08:16:33;;;;;;;13.07;5.13;;;;;;;17.77;42.36;100393.78;4940552;29;20221;-91
2021/03/31 08:19:25;;;;;;;12.90;5.60;;;;;;;17.80;41.93;100382.44;4911009;29;20233;-92
2021/03/31 08:22:23;;;;;;;12.37;5.57;;;;;;;17.98;41.00;100377.56;4925262;29;20247;-92
2021/03/31 08:25:16;;;;;;;13.87;5.80;;;;;;;18.05;40.63;100371.97;4948933;28;20302;-92
2021/03/31 08:28:11;;;;;;;13.37;5.50;;;;;;;18.25;40.84;100385.78;4955769;29;20252;-91
2021/03/31 08:30:49;;;;;;;11.67;5.83;;;;;;;18.26;40.56;100373.03;4935786;28;20231;-91
2021/03/31 08:33:25;;;;;;;10.23;5.70;;;;;;;18.38;40.43;100369.13;4943252;28;20311;-92
2021/03/31 08:36:03;;;;;;;13.50;5.97;;;;;;;18.51;39.52;100373.38;4954776;28;20416;-90
2021/03/31 08:38:58;;;;;;;16.97;6.60;;;;;;;18.64;39.22;100378.44;4944467;28;20635;-91
2021/03/31 08:41:38;;;;;;;25.67;7.30;;;;;;;18.75;39.30;100380.19;4942780;28;20249;-91
2021/03/31 08:44:25;;;;;;;11.60;6.70;;;;;;;18.85;38.21;100352.31;4958657;28;20235;-89
2021/03/31 08:47:16;;;;;;;15.60;6.17;;;;;;;18.96;37.85;100359.47;4925994;29;20236;-89
2021/03/31 08:50:04;;;;;;;18.30;6.20;;;;;;;19.13;38.44;100371.03;4930892;28;20233;-89
2021/03/31 08:52:39;;;;;;;13.07;6.90;;;;;;;19.25;37.49;100376.31;4958857;28;20235;-89
2021/03/31 08:55:17;;;;;;;13.37;6.60;;;;;;;19.23;36.73;100354.84;4944375;28;20310;-88
2021/03/31 08:57:50;;;;;;;15.10;7.00;;;;;;;19.45;36.58;100359.41;4944049;28;20234;-89
2021/03/31 09:00:29;;;;;;;11.33;6.17;;;;;;;19.35;36.80;100349.25;4926315;28;20235;-89
2021/03/31 09:03:09;;;;;;;10.13;6.27;;;;;;;19.44;36.96;100336.84;4958578;28;20684;-89
2021/03/31 09:06:05;;;;;;;9.33;6.83;;;;;;;19.64;36.52;100349.78;4923133;28;20221;-89
2021/03/31 09:08:49;;;;;;;12.53;6.57;;;;;;;19.68;36.24;100335.38;4945177;28;20232;-89
2021/03/31 09:11:35;;;;;;;10.27;6.57;;;;;;;19.82;36.63;100349.34;4932281;29;20543;-89
2021/03/31 09:14:27;;;;;;;10.37;6.57;;;;;;;19.93;35.91;100345.56;4909299;29;20225;-89
2021/03/31 09:17:20;;;;;;;10.03;6.57;;;;;;;20.08;35.29;100339.41;4955446;28;20577;-89
2021/03/31 09:19:59;;;;;;;11.30;6.80;;;;;;;20.13;35.42;100334.81;4926455;29;20319;-88
2021/03/31 09:22:42;;;;;;;12.03;6.03;;;;;;;20.34;34.45;100338.47;4926590;29;20224;-89
2021/03/31 09:25:26;;;;;;;11.07;6.77;;;;;;;20.32;35.32;100323.50;4926367;28;20225;-89
2021/03/31 09:28:10;;;;;;;11.63;6.60;;;;;;;20.48;34.93;100327.91;4942990;28;20244;-89
2021/03/31 09:31:02;;;;;;;13.93;7.00;;;;;;;20.61;34.54;100327.41;4943262;28;20685;-88
2021/03/31 09:34:01;;;;;;;11.70;7.00;;;;;;;20.69;34.47;100310.53;4942949;28;20229;-89
2021/03/31 09:37:12;;;;;;;10.63;7.43;;;;;;;20.76;34.57;100304.84;4948225;29;20236;-88
2021/03/31 09:41:15;;;;;;;12.63;7.27;;;;;;;21.01;35.29;100315.72;5106319;27;20546;-88
2021/03/31 09:44:08;;;;;;;12.23;7.20;;;;;;;21.08;35.01;100308.13;5029839;28;20704;-91
2021/03/31 09:46:52;;;;;;;13.53;7.37;;;;;;;21.24;34.85;100303.50;5004475;28;20227;-87
2021/03/31 09:49:29;;;;;;;13.93;7.47;;;;;;;21.38;34.94;100296.41;5004370;28;20219;-91
2021/03/31 09:52:07;;;;;;;13.30;7.00;;;;;;;21.45;35.07;100284.16;5034796;28;20254;-92
2021/03/31 09:54:46;;;;;;;13.37;7.17;;;;;;;21.57;35.00;100292.00;5019564;28;20290;-90
2021/03/31 09:57:27;;;;;;;10.30;7.33;;;;;;;21.59;34.20;100297.22;5019275;28;20231;-90
2021/03/31 10:00:32;;;;;;;16.27;9.00;;;;;;;21.68;34.17;100282.72;5018274;28;20635;-86
2021/03/31 10:03:10;;;;;;;13.73;8.70;;;;;;;21.78;34.67;100284.63;5018825;28;20533;-87
2021/03/31 10:05:51;;;;;;;21.17;9.13;;;;;;;21.91;36.12;100290.28;5035615;28;20323;-89
2021/03/31 10:08:36;;;;;;;14.07;10.10;;;;;;;22.00;33.96;100282.38;5020206;28;20622;-89
2021/03/31 10:11:41;;;;;;;11.97;9.20;;;;;;;22.22;34.44;100285.56;5034261;28;20894;-94
2021/03/31 10:14:26;;;;;;;15.13;8.90;;;;;;;22.33;34.07;100289.88;5007747;28;20309;-90
2021/03/31 10:17:09;;;;;;;15.43;10.50;;;;;;;22.22;34.10;100266.44;5003992;28;20317;-85
2021/03/31 10:19:47;;;;;;;11.60;9.50;;;;;;;22.30;34.66;100267.78;5004292;28;20522;-88
2021/03/31 10:22:33;;;;;;;16.77;10.67;;;;;;;22.32;34.99;100277.31;5035112;28;20230;-84
2021/03/31 10:25:35;;;;;;;14.10;10.10;;;;;;;22.57;35.71;100268.16;5034573;28;20667;-94
2021/03/31 10:28:43;;;;;;;19.10;10.20;;;;;;;22.74;34.88;100259.59;5025473;28;20231;-94
2021/03/31 10:31:46;;;;;;;17.67;10.10;;;;;;;22.64;34.24;100262.38;5038639;28;20222;-95
2021/03/31 10:34:19;;;;;;;16.33;9.93;;;;;;;22.72;34.62;100261.81;5034761;28;20259;-92
2021/03/31 10:40:50;;;;;;;14.00;9.23;;;;;;;22.81;33.88;100239.06;4999504;28;20237;-90
2021/03/31 10:49:13;;;;;;;11.90;8.57;;;;;;;22.90;33.96;100239.28;5030311;28;20256;-94
2021/03/31 10:51:58;;;;;;;13.50;8.73;;;;;;;23.02;35.52;100238.88;5002227;28;20222;-92
2021/03/31 10:54:29;;;;;;;15.33;9.57;;;;;;;22.72;34.96;100224.38;4981068;28;20224;-83
2021/03/31 10:57:11;;;;;;;15.90;8.70;;;;;;;23.07;34.77;100220.53;5007025;28;20304;-96
2021/03/31 10:59:48;;;;;;;12.40;8.30;;;;;;;23.17;34.82;100204.03;4994113;28;20221;-91
2021/03/31 11:02:17;;;;;;;14.63;8.93;;;;;;;23.40;34.60;100224.31;5021411;28;20944;-96
2021/03/31 11:04:46;;;;;;;11.70;8.80;;;;;;;23.49;33.47;100211.66;5007751;28;20234;-90
2021/03/31 11:07:28;;;;;;;13.90;8.90;;;;;;;23.49;33.30;100202.63;5022413;28;20295;-90
2021/03/31 11:10:07;;;;;;;14.03;9.33;;;;;;;23.60;32.24;100204.16;5013335;28;20313;-92
2021/03/31 11:12:52;;;;;;;15.07;9.27;;;;;;;23.80;32.51;100217.56;4999339;28;20234;-91
2021/03/31 11:15:33;;;;;;;12.85;8.85;;;;;;;23.73;32.51;100208.09;4985079;28;20231;-94
2021/03/31 11:18:20;;;;;;;12.40;8.48;;;;;;;23.80;33.17;100205.81;4986410;28;20274;-86
2021/03/31 11:21:29;;;;;;;13.02;8.57;;;;;;;23.89;32.21;100204.88;4996890;28;20241;-96
2021/03/31 11:27:06;;;;;;;14.00;8.77;;;;;;;23.32;32.79;100194.06;5003102;28;20230;-95
2021/03/31 11:29:49;;;;;;;14.05;8.45;;;;;;;23.51;32.96;100178.56;4996675;28;20233;-92
2021/03/31 11:32:25;;;;;;;11.73;8.48;;;;;;;23.59;32.94;100169.69;4995983;28;20699;-88
2021/03/31 11:34:57;;;;;;;15.23;8.40;;;;;;;23.70;33.19;100172.00;4981128;28;20232;-95
2021/03/31 11:37:33;;;;;;;12.15;8.18;;;;;;;23.73;32.48;100167.06;4984293;28;20218;-89
2021/03/31 11:40:12;;;;;;;11.57;7.35;;;;;;;23.86;32.93;100169.88;4996444;28;20222;-93
2021/03/31 11:42:49;;;;;;;10.60;7.47;;;;;;;23.82;32.44;100163.38;4983159;28;20258;-92
2021/03/31 11:45:28;;;;;;;11.38;7.47;;;;;;;23.87;31.91;100162.50;5000409;28;20227;-93
2021/03/31 11:48:11;;;;;;;9.88;7.25;;;;;;;23.89;32.61;100154.81;5011420;28;20223;-81
2021/03/31 11:50:50;;;;;;;12.15;7.22;;;;;;;24.18;32.71;100160.97;4996220;28;20321;-95
2021/03/31 11:53:32;;;;;;;12.52;7.47;;;;;;;24.22;32.80;100161.19;5002660;28;20223;-95
2021/03/31 11:56:17;;;;;;;11.50;7.50;;;;;;;24.20;32.06;100141.53;4995748;28;20231;-90
2021/03/31 11:59:14;;;;;;;10.70;7.60;;;;;;;24.19;32.01;100139.91;5006616;28;20233;-86
2021/03/31 12:01:55;;;;;;;14.15;7.30;;;;;;;24.22;32.56;100142.03;5016123;28;20242;-89
2021/03/31 12:04:40;;;;;;;12.88;7.80;;;;;;;24.23;32.09;100140.91;5000499;28;20226;-95
2021/03/31 12:07:22;;;;;;;13.13;8.07;;;;;;;24.35;32.12;100133.91;5015797;28;20234;-94
2021/03/31 12:10:06;;;;;;;12.23;7.68;;;;;;;24.44;31.98;100134.03;5000167;28;20227;-95
2021/03/31 12:12:44;;;;;;;8.55;7.30;;;;;;;24.58;32.26;100131.34;5000302;28;20563;-92
2021/03/31 12:15:24;;;;;;;15.15;7.18;;;;;;;24.59;32.17;100111.06;5015307;28;20238;-85
2021/03/31 12:18:00;;;;;;;11.77;7.20;;;;;;;24.55;31.03;100117.13;5000243;28;20570;-84
2021/03/31 12:20:40;;;;;;;11.35;7.13;;;;;;;24.55;30.98;100121.78;4995623;28;20695;-96
2021/03/31 12:23:28;;;;;;;12.82;7.07;;;;;;;24.64;31.05;100108.19;4997095;28;20232;-90
2021/03/31 12:26:11;;;;;;;10.70;6.85;;;;;;;24.81;30.96;100106.53;4999761;28;20254;-88
2021/03/31 12:28:59;;;;;;;12.48;7.57;;;;;;;24.69;31.03;100102.63;5015910;28;20218;-90
2021/03/31 12:31:40;;;;;;;8.93;6.78;;;;;;;24.60;30.67;100082.53;5015096;28;20640;-96
2021/03/31 12:34:19;;;;;;;9.70;6.25;;;;;;;24.71;31.63;100098.50;5014519;28;20586;-95
2021/03/31 12:36:55;;;;;;;14.38;7.20;;;;;;;24.54;32.00;100059.91;4999170;28;20230;-92
2021/03/31 12:39:33;;;;;;;13.50;6.70;;;;;;;24.92;31.67;100071.53;5008760;28;20223;-92
2021/03/31 12:42:18;;;;;;;10.57;6.50;;;;;;;24.97;30.99;100072.25;4999336;28;20227;-89
2021/03/31 12:45:03;;;;;;;10.98;6.05;;;;;;;25.07;30.46;100081.41;5012699;28;20230;-93
2021/03/31 12:47:49;;;;;;;10.82;6.72;;;;;;;24.95;29.59;100062.72;4994976;28;20227;-91
2021/03/31 12:50:28;;;;;;;12.45;6.43;;;;;;;24.95;30.46;100074.50;4989424;28;20644;-94
2021/03/31 12:56:02;;;;;;;7.07;5.60;;;;;;;24.93;30.52;100040.28;5013698;28;20231;-90
2021/03/31 12:58:42;;;;;;;7.80;6.05;;;;;;;24.99;30.56;100048.09;5015227;28;20661;-93
2021/03/31 13:01:27;;;;;;;8.23;5.55;;;;;;;25.17;29.82;100054.59;4994959;28;20236;-95
2021/03/31 13:04:30;;;;;;;7.38;5.22;;;;;;;25.16;30.04;100049.41;4999076;28;20319;-95
2021/03/31 13:07:09;;;;;;;5.90;4.72;;;;;;;24.94;30.26;100037.25;4999898;28;20234;-91
2021/03/31 13:10:05;;;;;;;9.27;4.95;;;;;;;24.94;29.94;100034.50;5014668;28;20274;-92
2021/03/31 13:13:02;;;;;;;8.05;4.88;;;;;;;25.14;30.47;100032.47;5013794;28;20233;-92
2021/03/31 13:22:21;;;;;;;9.25;4.50;;;;;;;25.25;29.43;100011.91;4994866;28;20226;-91
2021/03/31 13:25:10;;;;;;;8.15;4.43;;;;;;;25.44;29.16;100002.44;4991582;28;20522;-96
2021/03/31 13:33:36;;;;;;;6.07;3.80;;;;;;;25.33;29.42;99989.28;5004603;28;20227;-95
2021/03/31 13:41:49;;;;;;;5.88;4.53;;;;;;;25.31;29.53;99986.84;5017147;28;20255;-91
2021/03/31 13:44:41;;;;;;;7.80;4.50;;;;;;;25.46;29.55;99990.34;5034103;28;20222;-93
2021/03/31 13:47:28;;;;;;;5.50;4.30;;;;;;;25.46;29.17;99976.63;4983386;28;20671;-92
2021/03/31 13:50:11;;;;;;;6.38;4.20;;;;;;;25.47;29.34;99986.50;4988210;28;20757;-93
2021/03/31 13:52:50;;;;;;;8.23;4.35;;;;;;;25.26;29.80;99970.50;5001662;28;20244;-94
2021/03/31 13:55:32;;;;;;;5.60;4.30;;;;;;;25.27;29.91;99955.66;5002672;28;20223;-92
2021/03/31 13:58:09;;;;;;;8.57;4.28;;;;;;;25.41;29.16;99972.09;5018043;28;20230;-89
2021/03/31 14:00:49;;;;;;;6.20;4.20;;;;;;;25.33;29.21;99956.38;5034605;28;20239;-95
2021/03/31 14:03:31;;;;;;;6.30;4.45;;;;;;;25.26;29.53;99954.03;5001785;28;20229;-87
2021/03/31 14:06:33;;;;;;;6.78;4.65;;;;;;;25.44;29.34;99974.19;5009766;28;20327;-92
2021/03/31 14:09:23;;;;;;;6.07;4.70;;;;;;;25.31;29.94;99958.59;4990964;28;20503;-93
2021/03/31 14:12:18;;;;;;;5.88;4.38;;;;;;;25.21;29.81;99934.16;5003564;28;20257;-94
2021/03/31 14:15:00;;;;;;;6.80;4.13;;;;;;;25.10;29.29;99935.50;5001737;28;20538;-93
2021/03/31 14:17:36;;;;;;;7.45;4.40;;;;;;;25.16;29.64;99950.72;5014161;28;20241;-91
2021/03/31 14:20:15;;;;;;;7.80;4.80;;;;;;;25.19;29.71;99958.34;5001416;28;20238;-89
2021/03/31 14:22:50;;;;;;;10.43;4.70;;;;;;;25.18;29.51;99951.22;5001949;28;20228;-95
2021/03/31 14:25:26;;;;;;;5.75;4.57;;;;;;;25.11;29.88;99939.84;5034192;28;20252;-93
2021/03/31 14:28:07;;;;;;;6.55;4.78;;;;;;;25.10;29.61;99938.25;5005095;28;20319;-89
2021/03/31 14:31:04;;;;;;;8.77;4.70;;;;;;;25.03;30.20;99940.59;5005204;28;20231;-94
2021/03/31 14:33:31;;;;;;;7.15;4.85;;;;;;;25.04;30.22;99934.00;5002026;28;20227;-92
2021/03/31 14:36:24;;;;;;;9.10;4.65;;;;;;;25.01;29.93;99910.72;4999874;28;20245;-94
2021/03/31 14:39:18;;;;;;;7.22;4.53;;;;;;;25.07;29.76;99923.22;4996498;28;20235;-90
2021/03/31 14:42:12;;;;;;;9.68;4.75;;;;;;;24.93;29.58;99909.53;4997597;28;20351;-95
2021/03/31 14:44:49;;;;;;;5.88;4.38;;;;;;;24.92;29.75;99909.84;5002095;28;20237;-94
2021/03/31 14:47:35;;;;;;;9.57;3.85;;;;;;;25.01;30.15;99915.44;5017028;28;20359;-86
2021/03/31 14:50:34;;;;;;;6.60;4.38;;;;;;;24.93;30.28;99909.53;5003698;28;20229;-90
2021/03/31 15:01:37;;;;;;;6.55;4.03;;;;;;;24.96;29.97;99908.91;5004587;28;20222;-89
2021/03/31 15:04:10;;;;;;;7.32;4.10;;;;;;;24.92;29.64;99898.88;5003584;28;20679;-90
2021/03/31 15:06:39;;;;;;;5.63;3.92;;;;;;;24.68;29.85;99885.41;5000794;28;20234;-93
2021/03/31 15:09:19;;;;;;;4.85;3.50;;;;;;;24.79;30.00;99896.94;5017143;28;20234;-90
2021/03/31 15:12:04;;;;;;;5.93;3.80;;;;;;;24.74;30.45;99899.78;5018176;28;20228;-84
2021/03/31 15:14:58;;;;;;;8.48;3.70;;;;;;;24.67;30.24;99892.00;5010443;28;20233;-92
2021/03/31 15:17:50;;;;;;;5.93;3.67;;;;;;;24.55;31.16;99881.56;5016991;28;20227;-94
2021/03/31 15:20:44;;;;;;;5.65;3.55;;;;;;;24.40;30.99;99862.69;5000824;28;20223;-82
2021/03/31 15:26:14;;;;;;;5.22;4.15;;;;;;;24.26;31.44;99866.56;5010813;28;20725;-94
2021/03/31 15:29:07;;;;;;;8.50;4.18;;;;;;;24.29;31.70;99887.84;5003299;28;20227;-94
2021/03/31 15:31:47;;;;;;;5.65;4.13;;;;;;;24.19;31.62;99871.63;5017307;28;20308;-91
2021/03/31 15:34:27;;;;;;;6.28;3.75;;;;;;;24.00;31.76;99868.94;5015713;28;20304;-88
2021/03/31 15:37:08;;;;;;;5.90;4.13;;;;;;;23.97;32.14;99861.34;5001065;28;20229;-93
2021/03/31 15:39:48;;;;;;;6.60;4.40;;;;;;;23.94;31.84;99861.91;4997216;28;20234;-91
2021/03/31 15:42:23;;;;;;;5.70;4.20;;;;;;;23.76;32.48;99849.94;5003389;28;20219;-88
2021/03/31 15:45:09;;;;;;;7.22;4.85;;;;;;;23.65;32.70;99862.19;5015987;28;20244;-87
2021/03/31 15:47:44;;;;;;;6.50;4.40;;;;;;;23.52;33.07;99835.59;5006420;28;20314;-88
2021/03/31 15:50:23;;;;;;;6.60;4.00;;;;;;;23.43;33.17;99834.63;4981016;28;20536;-93
2021/03/31 15:53:06;;;;;;;7.85;4.05;;;;;;;23.42;33.45;99857.63;5007444;28;20539;-92
2021/03/31 15:55:36;;;;;;;6.90;3.67;;;;;;;23.15;34.04;99837.25;5000085;28;20219;-85
2021/03/31 15:58:14;;;;;;;5.10;3.90;;;;;;;23.00;34.26;99823.84;4987443;28;20639;-84
2021/03/31 16:00:51;;;;;;;7.60;4.60;;;;;;;22.91;34.42;99833.03;4991446;28;20231;-87
2021/03/31 16:03:28;;;;;;;11.18;4.30;;;;;;;22.65;34.65;99825.16;5010545;28;20222;-87
2021/03/31 16:06:08;;;;;;;5.95;4.72;;;;;;;22.56;35.03;99840.56;4988817;28;20242;-83
2021/03/31 16:08:54;;;;;;;8.25;4.53;;;;;;;22.49;35.09;99839.31;4997939;28;20646;-94
2021/03/31 16:11:35;;;;;;;7.15;4.18;;;;;;;22.34;35.53;99840.31;4979379;28;20223;-84
2021/03/31 16:14:21;;;;;;;5.47;4.00;;;;;;;22.13;35.88;99831.53;5004032;28;20262;-89
2021/03/31 16:17:11;;;;;;;8.00;4.25;;;;;;;21.94;36.08;99808.84;5000698;28;20233;-86
2021/03/31 16:19:57;;;;;;;6.43;3.85;;;;;;;22.01;36.40;99831.13;5000917;28;20241;-88
2021/03/31 16:22:44;;;;;;;6.75;3.92;;;;;;;21.90;36.47;99829.56;4998449;28;20278;-88